createdAt,value
2019-06-01T00:00:54.746Z,19.30
2019-06-01T00:01:59.700Z,19.29
2019-06-01T00:03:05.452Z,19.28
2019-06-01T00:04:10.390Z,19.27
2019-06-01T00:05:16.127Z,19.28
2019-06-01T00:06:21.357Z,19.30
2019-06-01T00:07:26.974Z,19.29
2019-06-01T00:08:32.026Z,19.29
2019-06-01T00:09:38.911Z,19.30
2019-06-01T00:10:45.121Z,19.30
2019-06-01T00:11:50.840Z,19.29
2019-06-01T00:12:56.244Z,19.29
2019-06-01T00:14:02.049Z,19.28
2019-06-01T00:15:08.211Z,19.28
2019-06-01T00:16:14.051Z,19.25
2019-06-01T00:17:19.008Z,19.23
2019-06-01T00:18:24.523Z,19.22
2019-06-01T00:19:29.486Z,19.19
2019-06-01T00:20:35.474Z,19.18
2019-06-01T00:21:41.181Z,19.17
2019-06-01T00:22:47.510Z,19.16
2019-06-01T00:23:52.974Z,19.14
2019-06-01T00:24:58.471Z,19.14
2019-06-01T00:26:03.778Z,19.13
2019-06-01T00:27:09.714Z,19.13
2019-06-01T00:28:14.932Z,19.11
2019-06-01T00:29:20.579Z,19.10
2019-06-01T00:30:27.380Z,19.09
2019-06-01T00:31:32.952Z,19.07
2019-06-01T00:32:37.989Z,19.07
2019-06-01T00:33:45.321Z,19.05
2019-06-01T00:34:50.415Z,19.04
2019-06-01T00:35:55.964Z,19.04
2019-06-01T00:37:01.021Z,19.04
2019-06-01T00:38:06.941Z,19.03
2019-06-01T00:39:15.071Z,19.02
2019-06-01T00:40:21.282Z,19.00
2019-06-01T00:41:26.343Z,18.98
2019-06-01T00:42:31.900Z,18.97
2019-06-01T00:43:36.969Z,18.97
2019-06-01T00:44:44.213Z,18.96
2019-06-01T00:45:50.531Z,18.93
2019-06-01T00:46:56.441Z,18.93
2019-06-01T00:48:01.517Z,18.91
2019-06-01T00:49:07.303Z,18.90
2019-06-01T00:50:12.661Z,18.88
2019-06-01T00:51:18.214Z,18.89
2019-06-01T00:52:23.255Z,18.88
2019-06-01T00:53:28.966Z,18.87
2019-06-01T00:54:34.078Z,18.86
2019-06-01T00:55:39.688Z,18.85
2019-06-01T00:56:49.593Z,18.84
2019-06-01T00:57:55.360Z,18.84
2019-06-01T00:59:00.858Z,18.82
2019-06-01T01:00:06.845Z,18.81
2019-06-01T01:01:12.476Z,18.82
2019-06-01T01:02:18.207Z,18.82
2019-06-01T01:03:23.207Z,18.81
2019-06-01T01:04:28.921Z,18.81
2019-06-01T01:05:33.968Z,18.81
2019-06-01T01:06:39.587Z,18.79
2019-06-01T01:07:44.789Z,18.79
2019-06-01T01:08:50.951Z,18.78
2019-06-01T01:09:56.046Z,18.78
2019-06-01T01:11:01.943Z,18.76
2019-06-01T01:12:07.090Z,18.75
2019-06-01T01:13:15.711Z,18.74
2019-06-01T01:14:20.718Z,18.72
2019-06-01T01:15:26.407Z,18.72
2019-06-01T01:16:32.218Z,18.69
2019-06-01T01:17:37.836Z,18.68
2019-06-01T01:18:43.096Z,18.68
2019-06-01T01:19:49.693Z,18.67
2019-06-01T01:20:56.149Z,18.66
2019-06-01T01:22:01.847Z,18.65
2019-06-01T01:23:07.454Z,18.65
2019-06-01T01:24:13.090Z,18.65
2019-06-01T01:25:18.249Z,18.64
2019-06-01T01:26:23.911Z,18.64
2019-06-01T01:27:28.966Z,18.63
2019-06-01T01:28:34.591Z,18.62
2019-06-01T01:29:39.584Z,18.62
2019-06-01T01:31:01.693Z,18.62
2019-06-01T01:31:51.828Z,18.62
2019-06-01T01:32:59.206Z,18.62
2019-06-01T01:34:04.869Z,18.63
2019-06-01T01:35:10.789Z,18.62
2019-06-01T01:36:16.049Z,18.63
2019-06-01T01:37:21.773Z,18.63
2019-06-01T01:38:26.892Z,18.63
2019-06-01T01:39:32.424Z,18.63
2019-06-01T01:40:37.450Z,18.63
2019-06-01T01:41:43.117Z,18.62
2019-06-01T01:42:48.795Z,18.62
2019-06-01T01:43:56.592Z,18.62
2019-06-01T01:45:01.974Z,18.61
2019-06-01T01:46:07.678Z,18.59
2019-06-01T01:47:14.427Z,18.59
2019-06-01T01:48:20.739Z,18.58
2019-06-01T01:49:25.979Z,18.58
2019-06-01T01:50:33.190Z,18.58
2019-06-01T01:51:38.156Z,18.57
2019-06-01T01:52:43.794Z,18.56
2019-06-01T01:53:50.576Z,18.56
2019-06-01T01:54:56.841Z,18.55
2019-06-01T01:56:02.025Z,18.55
2019-06-01T01:57:07.569Z,18.56
2019-06-01T01:58:12.681Z,18.55
2019-06-01T01:59:18.315Z,18.55
2019-06-01T02:00:44.439Z,18.55
2019-06-01T02:01:50.423Z,18.55
2019-06-01T02:02:55.868Z,18.54
2019-06-01T02:04:03.220Z,18.52
2019-06-01T02:05:10.107Z,18.52
2019-06-01T02:06:15.757Z,18.50
2019-06-01T02:07:20.713Z,18.48
2019-06-01T02:08:26.604Z,18.47
2019-06-01T02:09:32.174Z,18.46
2019-06-01T02:10:38.547Z,18.45
2019-06-01T02:11:43.605Z,18.45
2019-06-01T02:12:49.173Z,18.46
2019-06-01T02:13:54.131Z,18.46
2019-06-01T02:14:59.801Z,18.45
2019-06-01T02:16:04.916Z,18.45
2019-06-01T02:17:11.627Z,18.45
2019-06-01T02:18:16.856Z,18.45
2019-06-01T02:19:22.538Z,18.44
2019-06-01T02:20:27.597Z,18.44
2019-06-01T02:21:33.520Z,18.44
2019-06-01T02:22:38.566Z,18.43
2019-06-01T02:23:44.377Z,18.42
2019-06-01T02:24:49.389Z,18.42
2019-06-01T02:25:56.950Z,18.41
2019-06-01T02:27:03.327Z,18.42
2019-06-01T02:28:09.054Z,18.40
2019-06-01T02:29:14.135Z,18.40
2019-06-01T02:30:20.079Z,18.38
2019-06-01T02:31:40.888Z,18.37
2019-06-01T02:32:32.786Z,18.38
2019-06-01T02:33:37.728Z,18.36
2019-06-01T02:34:43.290Z,18.36
2019-06-01T02:35:48.370Z,18.34
2019-06-01T02:36:54.402Z,18.33
2019-06-01T02:38:00.315Z,18.33
2019-06-01T02:39:08.397Z,18.33
2019-06-01T02:40:13.870Z,18.32
2019-06-01T02:41:19.643Z,18.31
2019-06-01T02:42:24.873Z,18.31
2019-06-01T02:43:30.538Z,18.31
2019-06-01T02:44:35.535Z,18.30
2019-06-01T02:45:41.443Z,18.30
2019-06-01T02:46:46.434Z,18.29
2019-06-01T02:47:52.030Z,18.29
2019-06-01T02:48:57.451Z,18.26
2019-06-01T02:50:04.475Z,18.27
2019-06-01T02:51:09.824Z,18.25
2019-06-01T02:52:15.344Z,18.25
2019-06-01T02:53:20.279Z,18.23
2019-06-01T02:54:25.844Z,18.22
2019-06-01T02:55:30.918Z,18.21
2019-06-01T02:56:36.450Z,18.21
2019-06-01T02:57:41.491Z,18.21
2019-06-01T02:58:49.362Z,18.19
2019-06-01T02:59:54.307Z,18.19
2019-06-01T03:01:26.052Z,18.18
2019-06-01T03:02:31.446Z,18.17
2019-06-01T03:03:37.140Z,18.16
2019-06-01T03:04:42.265Z,18.16
2019-06-01T03:05:49.320Z,18.15
2019-06-01T03:06:55.885Z,18.15
2019-06-01T03:08:01.884Z,18.15
2019-06-01T03:09:09.316Z,18.14
2019-06-01T03:10:15.097Z,18.14
2019-06-01T03:11:22.248Z,18.13
2019-06-01T03:12:30.529Z,18.13
2019-06-01T03:13:37.382Z,18.13
2019-06-01T03:14:45.054Z,18.11
2019-06-01T03:15:52.077Z,18.11
2019-06-01T03:17:01.916Z,18.09
2019-06-01T03:18:08.583Z,18.09
2019-06-01T03:19:17.344Z,18.09
2019-06-01T03:20:22.462Z,18.07
2019-06-01T03:21:31.684Z,18.07
2019-06-01T03:22:39.698Z,18.06
2019-06-01T03:23:46.973Z,18.06
2019-06-01T03:24:54.971Z,18.06
2019-06-01T03:26:04.203Z,18.05
2019-06-01T03:27:13.149Z,18.05
2019-06-01T03:28:21.721Z,18.05
2019-06-01T03:29:29.988Z,18.05
2019-06-01T03:30:45.190Z,18.03
2019-06-01T03:32:24.165Z,18.04
2019-06-01T03:33:14.187Z,18.03
2019-06-01T03:34:19.798Z,18.03
2019-06-01T03:35:25.406Z,18.02
2019-06-01T03:36:30.431Z,18.03
2019-06-01T03:37:36.121Z,18.02
2019-06-01T03:38:41.655Z,18.01
2019-06-01T03:39:47.260Z,18.02
2019-06-01T03:40:52.364Z,18.02
2019-06-01T03:41:57.949Z,18.02
2019-06-01T03:43:04.294Z,18.02
2019-06-01T03:44:09.915Z,18.02
2019-06-01T03:45:15.017Z,18.02
2019-06-01T03:46:20.614Z,18.02
2019-06-01T03:47:26.159Z,18.01
2019-06-01T03:48:31.741Z,18.01
2019-06-01T03:49:36.763Z,18.01
2019-06-01T03:50:42.379Z,18.03
2019-06-01T03:51:47.652Z,18.01
2019-06-01T03:52:53.480Z,18.04
2019-06-01T03:53:58.527Z,18.03
2019-06-01T03:55:04.436Z,18.04
2019-06-01T03:56:09.526Z,18.06
2019-06-01T03:57:15.388Z,18.06
2019-06-01T03:58:20.592Z,18.07
2019-06-01T03:59:26.526Z,18.08
2019-06-01T04:00:31.738Z,18.09
2019-06-01T04:01:37.582Z,18.10
2019-06-01T04:02:42.523Z,18.11
2019-06-01T04:03:48.198Z,18.11
2019-06-01T04:04:53.393Z,18.11
2019-06-01T04:05:59.007Z,18.13
2019-06-01T04:07:04.149Z,18.14
2019-06-01T04:08:09.953Z,18.14
2019-06-01T04:09:15.231Z,18.15
2019-06-01T04:10:20.768Z,18.17
2019-06-01T04:11:25.714Z,18.17
2019-06-01T04:12:31.242Z,18.19
2019-06-01T04:13:36.251Z,18.20
2019-06-01T04:14:41.839Z,18.21
2019-06-01T04:15:46.798Z,18.21
2019-06-01T04:16:52.358Z,18.22
2019-06-01T04:17:57.562Z,18.22
2019-06-01T04:19:03.773Z,18.23
2019-06-01T04:20:10.093Z,18.25
2019-06-01T04:21:15.895Z,18.25
2019-06-01T04:22:20.843Z,18.27
2019-06-01T04:23:26.670Z,18.27
2019-06-01T04:24:31.638Z,18.29
2019-06-01T04:25:37.257Z,18.28
2019-06-01T04:26:42.234Z,18.29
2019-06-01T04:27:47.930Z,18.31
2019-06-01T04:28:52.876Z,18.32
2019-06-01T04:29:58.423Z,18.31
2019-06-01T04:31:04.564Z,18.34
2019-06-01T04:32:10.942Z,18.34
2019-06-01T04:33:16.263Z,18.36
2019-06-01T04:34:22.040Z,18.37
2019-06-01T04:35:27.150Z,18.38
2019-06-01T04:36:32.687Z,18.40
2019-06-01T04:37:37.781Z,18.41
2019-06-01T04:38:43.468Z,18.42
2019-06-01T04:39:48.763Z,18.42
2019-06-01T04:40:54.323Z,18.43
2019-06-01T04:42:00.666Z,18.44
2019-06-01T04:43:07.787Z,18.44
2019-06-01T04:44:14.212Z,18.45
2019-06-01T04:45:20.443Z,18.46
2019-06-01T04:46:25.403Z,18.47
2019-06-01T04:47:31.123Z,18.48
2019-06-01T04:48:36.056Z,18.51
2019-06-01T04:49:41.674Z,18.52
2019-06-01T04:50:46.721Z,18.53
2019-06-01T04:51:52.535Z,18.55
2019-06-01T04:52:58.067Z,18.56
2019-06-01T04:54:04.828Z,18.58
2019-06-01T04:55:11.132Z,18.60
2019-06-01T04:56:17.044Z,18.61
2019-06-01T04:57:21.994Z,18.64
2019-06-01T04:58:27.612Z,18.65
2019-06-01T04:59:32.843Z,18.64
2019-06-01T05:00:38.524Z,18.66
2019-06-01T05:01:43.553Z,18.66
2019-06-01T05:02:56.581Z,18.68
2019-06-01T05:03:56.433Z,18.69
2019-06-01T05:05:02.212Z,18.70
2019-06-01T05:06:07.307Z,18.71
2019-06-01T05:07:13.464Z,18.71
2019-06-01T05:08:18.568Z,18.72
2019-06-01T05:09:24.205Z,18.72
2019-06-01T05:10:29.409Z,18.73
2019-06-01T05:11:34.936Z,18.72
2019-06-01T05:12:40.194Z,18.73
2019-06-01T05:13:46.210Z,18.73
2019-06-01T05:14:51.160Z,18.76
2019-06-01T05:15:56.831Z,18.82
2019-06-01T05:17:01.804Z,18.88
2019-06-01T05:18:07.974Z,18.95
2019-06-01T05:19:14.308Z,19.02
2019-06-01T05:20:20.018Z,19.10
2019-06-01T05:21:25.047Z,19.17
2019-06-01T05:22:30.557Z,19.24
2019-06-01T05:23:35.797Z,19.33
2019-06-01T05:24:41.346Z,19.43
2019-06-01T05:25:46.685Z,19.52
2019-06-01T05:26:52.476Z,19.62
2019-06-01T05:27:57.419Z,19.72
2019-06-01T05:29:03.009Z,19.81
2019-06-01T05:30:09.454Z,19.92
2019-06-01T05:31:23.464Z,20.02
2019-06-01T05:32:22.016Z,20.13
2019-06-01T05:33:36.858Z,20.22
2019-06-01T05:34:35.037Z,20.30
2019-06-01T05:35:40.657Z,20.40
2019-06-01T05:36:45.685Z,20.48
2019-06-01T05:37:51.509Z,20.56
2019-06-01T05:38:56.448Z,20.63
2019-06-01T05:40:02.213Z,20.69
2019-06-01T05:41:09.958Z,20.77
2019-06-01T05:42:14.833Z,20.83
2019-06-01T05:43:21.296Z,20.88
2019-06-01T05:44:27.035Z,20.92
2019-06-01T05:45:32.116Z,20.96
2019-06-01T05:46:37.619Z,21.01
2019-06-01T05:47:42.588Z,21.07
2019-06-01T05:48:48.198Z,21.11
2019-06-01T05:49:53.671Z,21.15
2019-06-01T05:50:59.229Z,21.19
2019-06-01T05:52:04.347Z,21.22
2019-06-01T05:53:10.449Z,21.26
2019-06-01T05:54:16.638Z,21.27
2019-06-01T05:55:23.081Z,21.29
2019-06-01T05:56:28.121Z,21.29
2019-06-01T05:57:33.961Z,21.30
2019-06-01T05:58:38.899Z,21.28
2019-06-01T05:59:44.499Z,21.27
2019-06-01T06:00:49.505Z,21.24
2019-06-01T06:01:55.291Z,21.21
2019-06-01T06:03:00.603Z,21.21
2019-06-01T06:04:06.277Z,21.19
2019-06-01T06:05:12.535Z,21.17
2019-06-01T06:06:18.248Z,21.15
2019-06-01T06:07:23.543Z,21.14
2019-06-01T06:08:29.060Z,21.14
2019-06-01T06:09:34.041Z,21.14
2019-06-01T06:10:39.615Z,21.14
2019-06-01T06:11:44.716Z,21.17
2019-06-01T06:12:50.505Z,21.18
2019-06-01T06:13:55.462Z,21.20
2019-06-01T06:15:01.212Z,21.24
2019-06-01T06:16:06.293Z,21.29
2019-06-01T06:17:14.530Z,21.34
2019-06-01T06:18:19.819Z,21.38
2019-06-01T06:19:25.717Z,21.41
2019-06-01T06:20:30.673Z,21.44
2019-06-01T06:21:36.265Z,21.47
2019-06-01T06:22:41.470Z,21.50
2019-06-01T06:23:47.143Z,21.54
2019-06-01T06:24:52.087Z,21.59
2019-06-01T06:25:57.938Z,21.63
2019-06-01T06:27:02.974Z,21.65
2019-06-01T06:28:08.686Z,21.69
2019-06-01T06:29:14.734Z,21.71
2019-06-01T06:30:21.024Z,21.73
2019-06-01T06:31:26.048Z,21.77
2019-06-01T06:32:31.877Z,21.79
2019-06-01T06:33:37.113Z,21.81
2019-06-01T06:34:42.737Z,21.82
2019-06-01T06:35:47.698Z,21.85
2019-06-01T06:36:53.623Z,21.87
2019-06-01T06:37:58.587Z,21.91
2019-06-01T06:39:04.820Z,21.95
2019-06-01T06:40:10.242Z,21.98
2019-06-01T06:41:16.097Z,22.02
2019-06-01T06:42:22.343Z,22.03
2019-06-01T06:43:32.922Z,22.07
2019-06-01T06:44:34.927Z,22.12
2019-06-01T06:45:40.520Z,22.17
2019-06-01T06:46:45.462Z,22.24
2019-06-01T06:47:51.097Z,22.30
2019-06-01T06:48:56.120Z,22.36
2019-06-01T06:50:01.918Z,22.39
2019-06-01T06:51:06.972Z,22.43
2019-06-01T06:52:12.558Z,22.47
2019-06-01T06:53:29.836Z,22.51
2019-06-01T06:54:26.003Z,22.54
2019-06-01T06:55:31.161Z,22.58
2019-06-01T06:56:36.684Z,22.63
2019-06-01T06:57:41.664Z,22.65
2019-06-01T06:58:47.204Z,22.65
2019-06-01T06:59:52.142Z,22.66
2019-06-01T07:00:57.739Z,22.68
2019-06-01T07:02:02.832Z,22.71
2019-06-01T07:03:08.380Z,22.73
2019-06-01T07:04:13.496Z,22.77
2019-06-01T07:05:19.385Z,22.81
2019-06-01T07:06:25.590Z,22.85
2019-06-01T07:07:31.324Z,22.88
2019-06-01T07:08:36.528Z,22.88
2019-06-01T07:09:42.195Z,22.90
2019-06-01T07:10:47.266Z,22.90
2019-06-01T07:11:52.869Z,22.91
2019-06-01T07:12:58.312Z,22.95
2019-06-01T07:14:03.990Z,22.98
2019-06-01T07:15:09.218Z,22.99
2019-06-01T07:16:15.084Z,23.03
2019-06-01T07:17:20.026Z,23.03
2019-06-01T07:18:25.837Z,23.05
2019-06-01T07:19:31.881Z,23.04
2019-06-01T07:20:37.840Z,23.04
2019-06-01T07:21:42.850Z,23.03
2019-06-01T07:22:48.667Z,23.03
2019-06-01T07:23:53.615Z,23.04
2019-06-01T07:24:59.223Z,23.06
2019-06-01T07:26:04.639Z,23.09
2019-06-01T07:27:10.155Z,23.11
2019-06-01T07:28:15.172Z,23.15
2019-06-01T07:29:22.095Z,23.17
2019-06-01T07:30:28.329Z,23.19
2019-06-01T07:31:34.274Z,23.22
2019-06-01T07:32:39.386Z,23.25
2019-06-01T07:33:45.224Z,23.28
2019-06-01T07:34:50.378Z,23.31
2019-06-01T07:35:56.009Z,23.34
2019-06-01T07:37:00.971Z,23.35
2019-06-01T07:38:06.640Z,23.37
2019-06-01T07:39:11.853Z,23.40
2019-06-01T07:40:20.840Z,23.42
2019-06-01T07:41:26.687Z,23.43
2019-06-01T07:42:33.072Z,23.45
2019-06-01T07:43:38.341Z,23.47
2019-06-01T07:44:44.139Z,23.51
2019-06-01T07:45:49.663Z,23.53
2019-06-01T07:46:55.233Z,23.55
2019-06-01T07:48:00.266Z,23.56
2019-06-01T07:49:05.915Z,23.58
2019-06-01T07:50:11.449Z,23.59
2019-06-01T07:51:17.080Z,23.61
2019-06-01T07:52:22.466Z,23.62
2019-06-01T07:53:29.519Z,23.61
2019-06-01T07:54:34.911Z,23.63
2019-06-01T07:55:40.474Z,23.65
2019-06-01T07:56:45.852Z,23.66
2019-06-01T07:57:51.481Z,23.68
2019-06-01T07:58:56.733Z,23.71
2019-06-01T08:00:02.450Z,23.72
2019-06-01T08:01:07.523Z,23.73
2019-06-01T08:02:13.612Z,23.75
2019-06-01T08:03:18.851Z,23.77
2019-06-01T08:04:26.293Z,23.79
2019-06-01T08:05:32.188Z,23.82
2019-06-01T08:06:44.457Z,23.84
2019-06-01T08:07:44.793Z,23.85
2019-06-01T08:08:50.621Z,23.85
2019-06-01T08:09:55.915Z,23.87
2019-06-01T08:11:01.510Z,23.88
2019-06-01T08:12:06.766Z,23.92
2019-06-01T08:13:12.355Z,23.94
2019-06-01T08:14:17.741Z,23.96
2019-06-01T08:15:23.675Z,23.97
2019-06-01T08:16:29.949Z,23.99
2019-06-01T08:17:35.863Z,24.00
2019-06-01T08:18:40.807Z,24.00
2019-06-01T08:19:46.814Z,24.02
2019-06-01T08:20:51.842Z,24.05
2019-06-01T08:21:57.864Z,24.07
2019-06-01T08:23:02.910Z,24.08
2019-06-01T08:24:08.579Z,24.10
2019-06-01T08:25:13.614Z,24.11
2019-06-01T08:26:20.126Z,24.13
2019-06-01T08:27:26.508Z,24.14
2019-06-01T08:28:32.757Z,24.17
2019-06-01T08:29:38.381Z,24.18
2019-06-01T08:30:44.322Z,24.21
2019-06-01T08:31:49.324Z,24.21
2019-06-01T08:32:55.531Z,24.21
2019-06-01T08:34:01.168Z,24.21
2019-06-01T08:35:09.544Z,24.23
2019-06-01T08:36:16.790Z,24.26
2019-06-01T08:37:23.497Z,24.27
2019-06-01T08:38:29.634Z,24.30
2019-06-01T08:39:35.633Z,24.33
2019-06-01T08:40:40.837Z,24.35
2019-06-01T08:41:46.367Z,24.38
2019-06-01T08:42:51.481Z,24.41
2019-06-01T08:43:57.396Z,24.43
2019-06-01T08:45:02.583Z,24.47
2019-06-01T08:46:08.544Z,24.49
2019-06-01T08:47:13.570Z,24.50
2019-06-01T08:48:19.266Z,24.52
2019-06-01T08:49:25.789Z,24.53
2019-06-01T08:50:31.916Z,24.57
2019-06-01T08:51:37.071Z,24.57
2019-06-01T08:52:42.923Z,24.59
2019-06-01T08:53:48.084Z,24.61
2019-06-01T08:54:53.903Z,24.64
2019-06-01T08:55:58.993Z,24.67
2019-06-01T08:57:04.723Z,24.69
2019-06-01T08:58:09.656Z,24.70
2019-06-01T08:59:15.275Z,24.72
2019-06-01T09:00:20.500Z,24.74
2019-06-01T09:01:26.532Z,24.78
2019-06-01T09:02:32.795Z,24.80
2019-06-01T09:03:45.542Z,24.83
2019-06-01T09:04:45.422Z,24.86
2019-06-01T09:05:50.998Z,24.90
2019-06-01T09:06:55.922Z,24.95
2019-06-01T09:08:01.510Z,24.99
2019-06-01T09:09:11.425Z,25.03
2019-06-01T09:10:15.390Z,25.08
2019-06-01T09:11:20.660Z,25.13
2019-06-01T09:12:27.246Z,25.15
2019-06-01T09:13:33.295Z,25.16
2019-06-01T09:14:38.846Z,25.18
2019-06-01T09:15:43.834Z,25.19
2019-06-01T09:16:49.626Z,25.20
2019-06-01T09:17:54.675Z,25.19
2019-06-01T09:19:00.365Z,25.21
2019-06-01T09:20:05.852Z,25.23
2019-06-01T09:21:11.530Z,25.25
2019-06-01T09:22:16.723Z,25.25
2019-06-01T09:23:22.613Z,25.24
2019-06-01T09:24:27.754Z,25.23
2019-06-01T09:25:33.847Z,25.23
2019-06-01T09:26:38.765Z,25.24
2019-06-01T09:27:44.237Z,25.26
2019-06-01T09:28:49.299Z,25.27
2019-06-01T09:29:55.058Z,25.28
2019-06-01T09:31:00.286Z,25.29
2019-06-01T09:32:10.469Z,25.29
2019-06-01T09:33:13.055Z,25.28
2019-06-01T09:34:18.645Z,25.28
2019-06-01T09:35:40.766Z,25.29
2019-06-01T09:36:32.257Z,25.29
2019-06-01T09:37:37.454Z,25.29
2019-06-01T09:38:43.299Z,25.28
2019-06-01T09:39:48.271Z,25.28
2019-06-01T09:40:53.902Z,25.28
2019-06-01T09:41:58.899Z,25.30
2019-06-01T09:43:04.485Z,25.34
2019-06-01T09:44:09.402Z,25.37
2019-06-01T09:45:15.063Z,25.39
2019-06-01T09:46:20.203Z,25.42
2019-06-01T09:47:27.079Z,25.47
2019-06-01T09:48:33.504Z,25.49
2019-06-01T09:49:39.169Z,25.50
2019-06-01T09:50:44.405Z,25.49
2019-06-01T09:51:49.900Z,25.49
2019-06-01T09:52:55.085Z,25.49
2019-06-01T09:54:00.783Z,25.49
2019-06-01T09:55:06.141Z,25.50
2019-06-01T09:56:11.761Z,25.51
2019-06-01T09:57:17.094Z,25.52
2019-06-01T09:58:22.912Z,25.54
2019-06-01T09:59:28.065Z,25.58
2019-06-01T10:00:34.826Z,25.62
2019-06-01T10:01:40.047Z,25.65
2019-06-01T10:02:45.862Z,25.68
2019-06-01T10:03:51.065Z,25.71
2019-06-01T10:04:56.920Z,25.74
2019-06-01T10:06:02.538Z,25.75
2019-06-01T10:07:08.431Z,25.79
2019-06-01T10:08:13.457Z,25.80
2019-06-01T10:09:19.133Z,25.80
2019-06-01T10:10:24.310Z,25.80
2019-06-01T10:11:29.957Z,25.77
2019-06-01T10:12:36.055Z,25.75
2019-06-01T10:13:42.591Z,25.72
2019-06-01T10:14:47.948Z,25.67
2019-06-01T10:15:53.461Z,25.62
2019-06-01T10:16:58.699Z,25.58
2019-06-01T10:18:04.285Z,25.54
2019-06-01T10:19:09.604Z,25.52
2019-06-01T10:20:16.066Z,25.50
2019-06-01T10:21:21.064Z,25.49
2019-06-01T10:22:26.654Z,25.48
2019-06-01T10:23:32.397Z,25.49
2019-06-01T10:24:39.203Z,25.48
2019-06-01T10:25:44.530Z,25.49
2019-06-01T10:26:50.483Z,25.51
2019-06-01T10:27:55.524Z,25.52
2019-06-01T10:29:01.309Z,25.54
2019-06-01T10:30:06.968Z,25.56
2019-06-01T10:31:12.488Z,25.58
2019-06-01T10:32:17.511Z,25.61
2019-06-01T10:33:23.246Z,25.63
2019-06-01T10:34:28.240Z,25.64
2019-06-01T10:35:35.035Z,25.64
2019-06-01T10:36:40.295Z,25.65
2019-06-01T10:37:45.857Z,25.65
2019-06-01T10:38:51.167Z,25.66
2019-06-01T10:39:56.641Z,25.63
2019-06-01T10:41:01.815Z,25.64
2019-06-01T10:42:07.406Z,25.64
2019-06-01T10:43:12.490Z,25.64
2019-06-01T10:44:18.108Z,25.64
2019-06-01T10:45:23.271Z,25.64
2019-06-01T10:46:28.854Z,25.65
2019-06-01T10:47:35.823Z,25.66
2019-06-01T10:48:42.203Z,25.68
2019-06-01T10:49:47.469Z,25.70
2019-06-01T10:50:52.996Z,25.74
2019-06-01T10:51:57.926Z,25.77
2019-06-01T10:53:03.624Z,25.82
2019-06-01T10:54:08.713Z,25.85
2019-06-01T10:55:14.376Z,25.88
2019-06-01T10:56:19.313Z,25.91
2019-06-01T10:57:24.914Z,25.94
2019-06-01T10:58:29.840Z,25.96
2019-06-01T10:59:36.295Z,25.95
2019-06-01T11:00:46.721Z,25.97
2019-06-01T11:01:48.620Z,25.99
2019-06-01T11:02:53.541Z,26.02
2019-06-01T11:03:59.394Z,26.05
2019-06-01T11:05:05.068Z,26.06
2019-06-01T11:06:11.181Z,26.08
2019-06-01T11:07:16.185Z,26.08
2019-06-01T11:08:21.931Z,26.09
2019-06-01T11:09:26.867Z,26.11
2019-06-01T11:10:32.701Z,26.11
2019-06-01T11:11:38.751Z,26.09
2019-06-01T11:12:44.584Z,26.09
2019-06-01T11:13:49.815Z,26.10
2019-06-01T11:14:55.928Z,26.11
2019-06-01T11:16:00.848Z,26.12
2019-06-01T11:17:06.614Z,26.13
2019-06-01T11:18:11.796Z,26.15
2019-06-01T11:19:17.326Z,26.18
2019-06-01T11:20:22.390Z,26.23
2019-06-01T11:21:28.104Z,26.26
2019-06-01T11:22:33.440Z,26.32
2019-06-01T11:23:43.301Z,26.34
2019-06-01T11:24:46.328Z,26.39
2019-06-01T11:25:51.939Z,26.42
2019-06-01T11:26:57.096Z,26.46
2019-06-01T11:28:02.777Z,26.48
2019-06-01T11:29:07.770Z,26.48
2019-06-01T11:30:13.453Z,26.49
2019-06-01T11:31:18.444Z,26.48
2019-06-01T11:32:24.288Z,26.48
2019-06-01T11:33:29.222Z,26.49
2019-06-01T11:34:36.424Z,26.50
2019-06-01T11:35:41.566Z,26.49
2019-06-01T11:37:04.414Z,26.51
2019-06-01T11:37:53.930Z,26.52
2019-06-01T11:38:59.948Z,26.54
2019-06-01T11:40:05.925Z,26.55
2019-06-01T11:41:11.462Z,26.56
2019-06-01T11:42:19.753Z,26.54
2019-06-01T11:43:23.844Z,26.59
2019-06-01T11:44:28.970Z,26.58
2019-06-01T11:45:34.906Z,26.58
2019-06-01T11:46:41.086Z,26.59
2019-06-01T11:47:46.626Z,26.60
2019-06-01T11:48:51.909Z,26.61
2019-06-01T11:49:57.658Z,26.61
2019-06-01T11:51:02.723Z,26.61
2019-06-01T11:52:08.539Z,26.61
2019-06-01T11:53:13.792Z,26.60
2019-06-01T11:54:19.318Z,26.58
2019-06-01T11:55:24.308Z,26.58
2019-06-01T11:56:29.845Z,26.58
2019-06-01T11:57:35.237Z,26.60
2019-06-01T11:58:41.397Z,26.61
2019-06-01T11:59:46.362Z,26.61
2019-06-01T12:00:51.962Z,26.63
2019-06-01T12:01:56.966Z,26.63
2019-06-01T12:03:02.579Z,26.65
2019-06-01T12:04:07.794Z,26.65
2019-06-01T12:05:14.716Z,26.67
2019-06-01T12:06:19.776Z,26.70
2019-06-01T12:07:25.445Z,26.71
2019-06-01T12:08:33.989Z,26.71
2019-06-01T12:09:37.772Z,26.71
2019-06-01T12:10:43.217Z,26.74
2019-06-01T12:11:48.822Z,26.73
2019-06-01T12:12:53.866Z,26.74
2019-06-01T12:13:59.498Z,26.74
2019-06-01T12:15:04.951Z,26.75
2019-06-01T12:16:10.663Z,26.76
2019-06-01T12:17:15.729Z,26.77
2019-06-01T12:18:21.536Z,26.78
2019-06-01T12:19:26.548Z,26.79
2019-06-01T12:20:32.273Z,26.80
2019-06-01T12:21:37.220Z,26.80
2019-06-01T12:22:43.022Z,26.81
2019-06-01T12:23:48.263Z,26.84
2019-06-01T12:24:53.842Z,26.85
2019-06-01T12:25:59.247Z,26.87
2019-06-01T12:27:05.006Z,26.85
2019-06-01T12:28:09.944Z,26.88
2019-06-01T12:29:15.643Z,26.86
2019-06-01T12:30:21.029Z,26.86
2019-06-01T12:31:26.855Z,26.85
2019-06-01T12:32:31.914Z,26.85
2019-06-01T12:33:38.035Z,26.85
2019-06-01T12:34:44.002Z,26.85
2019-06-01T12:35:49.978Z,26.85
2019-06-01T12:36:54.918Z,26.86
2019-06-01T12:38:06.515Z,26.86
2019-06-01T12:39:09.015Z,26.87
2019-06-01T12:40:15.301Z,26.86
2019-06-01T12:41:20.749Z,26.85
2019-06-01T12:42:26.334Z,26.86
2019-06-01T12:43:31.270Z,26.87
2019-06-01T12:44:37.164Z,26.89
2019-06-01T12:45:42.221Z,26.89
2019-06-01T12:46:48.901Z,26.90
2019-06-01T12:47:58.163Z,26.91
2019-06-01T12:49:01.171Z,26.90
2019-06-01T12:50:06.466Z,26.92
2019-06-01T12:51:12.187Z,26.96
2019-06-01T12:52:17.448Z,26.98
2019-06-01T12:53:23.315Z,27.00
2019-06-01T12:54:28.247Z,26.99
2019-06-01T12:55:33.775Z,27.02
2019-06-01T12:56:38.839Z,27.02
2019-06-01T12:57:44.870Z,27.02
2019-06-01T12:58:50.159Z,27.02
2019-06-01T12:59:55.752Z,27.01
2019-06-01T13:01:02.823Z,27.01
2019-06-01T13:02:09.425Z,27.00
2019-06-01T13:03:14.835Z,27.02
2019-06-01T13:04:21.194Z,27.01
2019-06-01T13:05:26.276Z,27.03
2019-06-01T13:06:32.228Z,27.04
2019-06-01T13:07:51.026Z,27.05
2019-06-01T13:08:45.079Z,27.08
2019-06-01T13:09:50.621Z,27.10
2019-06-01T13:10:56.369Z,27.11
2019-06-01T13:12:01.415Z,27.12
2019-06-01T13:13:07.065Z,27.11
2019-06-01T13:14:12.300Z,27.11
2019-06-01T13:15:18.792Z,27.11
2019-06-01T13:16:23.781Z,27.11
2019-06-01T13:17:29.380Z,27.15
2019-06-01T13:18:34.889Z,27.15
2019-06-01T13:19:41.251Z,27.14
2019-06-01T13:20:47.666Z,27.14
2019-06-01T13:21:53.274Z,27.15
2019-06-01T13:22:58.718Z,27.16
2019-06-01T13:24:04.677Z,27.14
2019-06-01T13:25:10.371Z,27.10
2019-06-01T13:26:15.935Z,27.13
2019-06-01T13:27:20.999Z,27.11
2019-06-01T13:28:37.611Z,27.10
2019-06-01T13:29:33.831Z,27.09
2019-06-01T13:30:39.464Z,27.08
2019-06-01T13:31:44.477Z,27.07
2019-06-01T13:32:50.764Z,27.07
2019-06-01T13:33:55.882Z,27.07
2019-06-01T13:35:01.442Z,27.09
2019-06-01T13:36:06.444Z,27.11
2019-06-01T13:37:11.992Z,27.15
2019-06-01T13:38:17.026Z,27.15
2019-06-01T13:39:22.542Z,27.16
2019-06-01T13:40:27.909Z,27.16
2019-06-01T13:41:33.457Z,27.17
2019-06-01T13:42:38.563Z,27.20
2019-06-01T13:43:45.249Z,27.20
2019-06-01T13:44:51.506Z,27.23
2019-06-01T13:45:57.080Z,27.24
2019-06-01T13:47:02.432Z,27.24
2019-06-01T13:48:08.330Z,27.25
2019-06-01T13:49:13.414Z,27.25
2019-06-01T13:50:19.099Z,27.25
2019-06-01T13:51:24.274Z,27.25
2019-06-01T13:52:29.909Z,27.24
2019-06-01T13:53:35.164Z,27.23
2019-06-01T13:54:41.052Z,27.21
2019-06-01T13:55:46.127Z,27.20
2019-06-01T13:56:52.908Z,27.20
2019-06-01T13:57:57.985Z,27.20
2019-06-01T13:59:03.821Z,27.21
2019-06-01T14:00:10.502Z,27.21
2019-06-01T14:01:16.224Z,27.18
2019-06-01T14:02:21.220Z,27.20
2019-06-01T14:03:27.335Z,27.22
2019-06-01T14:04:32.833Z,27.19
2019-06-01T14:05:38.461Z,27.26
2019-06-01T14:06:44.984Z,27.29
2019-06-01T14:07:51.536Z,27.29